Time;durP1;ratioP1;P1;durP2;ratioP2;P2;SDS_P1;SDS_P2;PMS_P1;PMS_P2;Temp;Humidity;BMP_temperature;BMP_pressure;BME280_temperature;BME280_humidity;BME280_pressure;Samples;Min_cycle;Max_cycle;Signal;HPM_P1;HPM_P2
2021/01/10 00:01:17;;;;;;;27.85;13.93;;;3.40;99.90;;;;;;4149513;28;20034;-69
2021/01/10 00:03:17;;;;;;;27.08;14.55;;;3.40;99.90;;;;;;4150030;28;20045;-69
2021/01/10 00:05:25;;;;;;;28.10;14.38;;;3.40;99.90;;;;;;4150955;28;20048;-69
2021/01/10 00:07:26;;;;;;;26.75;13.25;;;3.40;99.90;;;;;;4148021;28;20437;-69
2021/01/10 00:09:26;;;;;;;28.67;16.05;;;3.40;99.90;;;;;;4151541;28;20172;-69
2021/01/10 00:11:27;;;;;;;27.05;13.90;;;3.40;99.90;;;;;;4147758;28;20378;-69
2021/01/10 00:13:28;;;;;;;25.63;13.25;;;3.40;99.90;;;;;;4146126;28;20385;-69
2021/01/10 00:15:29;;;;;;;26.80;14.35;;;3.40;99.90;;;;;;4151853;28;20044;-69
2021/01/10 00:17:30;;;;;;;26.48;14.30;;;3.40;99.90;;;;;;4151240;28;20113;-69
2021/01/10 00:19:31;;;;;;;24.98;13.60;;;3.50;99.90;;;;;;4147464;28;20038;-69
2021/01/10 00:21:33;;;;;;;26.60;14.63;;;3.50;99.90;;;;;;4150585;28;20514;-69
2021/01/10 00:23:34;;;;;;;26.73;14.05;;;3.50;99.90;;;;;;4150032;28;20045;-69
2021/01/10 00:25:35;;;;;;;21.33;12.80;;;3.50;99.90;;;;;;4149711;28;20060;-69
2021/01/10 00:27:37;;;;;;;23.38;13.15;;;3.50;99.90;;;;;;4147513;28;20029;-69
2021/01/10 00:29:39;;;;;;;28.47;13.83;;;3.50;99.90;;;;;;4149098;28;20609;-69
2021/01/10 00:31:40;;;;;;;26.77;14.60;;;3.50;99.90;;;;;;4150219;28;20284;-69
2021/01/10 00:33:40;;;;;;;25.15;14.65;;;3.50;99.90;;;;;;4154081;28;20037;-69
2021/01/10 00:35:41;;;;;;;27.75;13.45;;;3.50;99.90;;;;;;4151045;28;20103;-69
2021/01/10 00:37:49;;;;;;;24.75;14.32;;;3.40;99.90;;;;;;4146593;28;20048;-69
2021/01/10 00:39:50;;;;;;;25.05;13.50;;;3.50;99.90;;;;;;4149881;28;20056;-69
2021/01/10 00:41:51;;;;;;;23.02;13.27;;;3.50;99.90;;;;;;4148387;28;20493;-69
2021/01/10 00:43:51;;;;;;;30.88;15.70;;;3.50;99.90;;;;;;4146747;28;20030;-69
2021/01/10 00:45:52;;;;;;;21.88;13.05;;;3.50;99.90;;;;;;4151829;28;20033;-69
2021/01/10 00:47:54;;;;;;;26.10;13.68;;;3.50;99.90;;;;;;4148662;28;20486;-69
2021/01/10 00:49:55;;;;;;;24.42;13.23;;;3.50;99.90;;;;;;4146576;28;20090;-69
2021/01/10 00:51:55;;;;;;;23.40;14.02;;;3.50;99.90;;;;;;4148572;28;20035;-69
2021/01/10 00:53:56;;;;;;;29.83;15.07;;;3.50;99.90;;;;;;4146950;28;20095;-69
2021/01/10 00:55:57;;;;;;;24.13;13.43;;;3.50;99.90;;;;;;4149915;28;20081;-69
2021/01/10 00:57:57;;;;;;;24.25;13.02;;;3.50;99.90;;;;;;4148326;28;20044;-69
2021/01/10 00:59:58;;;;;;;22.45;13.48;;;3.50;99.90;;;;;;4151467;28;20117;-69
2021/01/10 01:01:59;;;;;;;23.13;13.05;;;3.50;99.90;;;;;;4147572;28;20018;-69
2021/01/10 01:04:00;;;;;;;23.40;12.85;;;3.50;99.90;;;;;;4151804;28;20030;-69
2021/01/10 01:06:00;;;;;;;23.83;13.45;;;3.50;99.90;;;;;;4141486;28;20514;-69
2021/01/10 01:08:01;;;;;;;24.55;12.93;;;3.50;99.90;;;;;;4149699;28;20057;-69
2021/01/10 01:10:02;;;;;;;22.83;12.70;;;3.50;99.90;;;;;;4148784;28;20440;-69
2021/01/10 01:12:06;;;;;;;22.77;12.63;;;3.50;99.90;;;;;;4148871;28;20052;-69
2021/01/10 01:14:08;;;;;;;24.77;13.77;;;3.50;99.90;;;;;;4145438;28;20037;-69
2021/01/10 01:16:09;;;;;;;20.75;11.63;;;3.50;99.90;;;;;;4151942;28;20436;-69
2021/01/10 01:18:10;;;;;;;20.15;11.13;;;3.50;99.90;;;;;;4148866;28;20033;-69
2021/01/10 01:20:10;;;;;;;24.27;12.00;;;3.50;99.90;;;;;;4149927;28;20403;-69
2021/01/10 01:22:11;;;;;;;22.50;12.05;;;3.50;99.90;;;;;;4149400;28;20040;-69
2021/01/10 01:24:12;;;;;;;22.02;11.73;;;3.50;99.90;;;;;;4149161;28;20030;-69
2021/01/10 01:26:16;;;;;;;19.95;11.43;;;3.50;99.90;;;;;;4149070;28;20502;-69
2021/01/10 01:28:17;;;;;;;18.10;11.27;;;3.60;99.90;;;;;;4130453;28;20038;-69
2021/01/10 01:30:17;;;;;;;20.13;11.45;;;3.50;99.90;;;;;;4150399;28;20041;-69
2021/01/10 01:32:18;;;;;;;19.50;11.73;;;3.50;99.90;;;;;;4150651;28;20091;-69
2021/01/10 01:34:18;;;;;;;19.20;10.57;;;3.60;99.90;;;;;;4149310;28;20436;-69
2021/01/10 01:36:25;;;;;;;23.83;11.30;;;3.60;99.90;;;;;;4151336;28;20042;-69
2021/01/10 01:38:25;;;;;;;20.00;11.25;;;3.60;99.90;;;;;;4144946;28;20088;-69
2021/01/10 01:40:26;;;;;;;19.85;11.00;;;3.60;99.90;;;;;;4150382;28;20049;-69
2021/01/10 01:42:26;;;;;;;16.83;10.70;;;3.60;99.90;;;;;;4149416;28;20030;-69
2021/01/10 01:44:27;;;;;;;19.10;10.98;;;3.60;99.90;;;;;;4145449;28;20041;-69
2021/01/10 01:46:36;;;;;;;18.52;10.50;;;3.50;99.90;;;;;;4149859;28;20075;-68
2021/01/10 01:48:41;;;;;;;20.45;11.27;;;3.50;99.90;;;;;;4150744;28;20030;-69
2021/01/10 01:50:41;;;;;;;18.88;10.82;;;3.50;99.90;;;;;;4136928;28;20413;-69
2021/01/10 01:52:42;;;;;;;21.77;11.88;;;3.50;99.90;;;;;;4146580;28;20168;-69
2021/01/10 01:54:43;;;;;;;17.45;10.90;;;3.50;99.90;;;;;;4149005;28;20033;-69
2021/01/10 01:56:45;;;;;;;20.17;11.23;;;3.50;99.90;;;;;;4148475;28;20092;-69
2021/01/10 01:59:04;;;;;;;16.98;10.13;;;3.50;99.90;;;;;;4132309;28;20116;-69
2021/01/10 02:01:05;;;;;;;20.77;10.45;;;3.50;99.90;;;;;;4144926;28;20030;-69
2021/01/10 02:03:05;;;;;;;21.55;10.80;;;3.50;99.90;;;;;;4137697;28;20141;-69
2021/01/10 02:05:15;;;;;;;17.13;10.63;;;3.50;99.90;;;;;;4142693;28;20055;-69
2021/01/10 02:07:31;;;;;;;20.02;10.23;;;3.50;99.90;;;;;;4119612;28;20043;-69
2021/01/10 02:09:39;;;;;;;16.50;9.95;;;3.50;99.90;;;;;;4113604;28;20073;-69
2021/01/10 02:11:43;;;;;;;18.45;10.40;;;3.50;99.90;;;;;;4118432;28;20034;-69
2021/01/10 02:13:46;;;;;;;18.80;10.68;;;3.40;99.90;;;;;;4123177;28;20086;-69
2021/01/10 02:15:47;;;;;;;18.52;10.52;;;3.50;99.90;;;;;;4132324;28;20030;-69
2021/01/10 02:17:53;;;;;;;16.98;10.05;;;3.40;99.90;;;;;;4126891;28;20378;-69
2021/01/10 02:20:05;;;;;;;17.08;10.52;;;3.40;99.90;;;;;;4128394;28;20023;-69
2021/01/10 02:22:08;;;;;;;16.48;10.18;;;3.40;99.90;;;;;;4116606;28;20380;-69
2021/01/10 02:24:09;;;;;;;14.50;8.82;;;3.40;99.90;;;;;;4121598;28;20042;-69
2021/01/10 02:26:10;;;;;;;18.42;10.23;;;3.40;99.90;;;;;;4122725;28;20446;-69
2021/01/10 02:28:14;;;;;;;17.45;9.27;;;3.30;99.90;;;;;;4107292;28;20039;-69
2021/01/10 02:30:15;;;;;;;17.38;9.40;;;3.30;99.90;;;;;;4130225;28;20114;-69
2021/01/10 02:32:21;;;;;;;16.50;9.82;;;3.30;99.90;;;;;;4125501;28;20068;-69
2021/01/10 02:34:24;;;;;;;14.77;9.10;;;3.30;99.90;;;;;;4125030;28;20093;-68
2021/01/10 02:36:46;;;;;;;15.27;9.55;;;3.30;99.90;;;;;;4120914;28;20062;-69
2021/01/10 02:39:09;;;;;;;14.48;9.45;;;3.30;99.90;;;;;;4124940;28;20054;-69
2021/01/10 02:41:25;;;;;;;15.07;9.27;;;3.30;99.90;;;;;;4126564;28;20036;-69
2021/01/10 02:43:30;;;;;;;16.20;8.80;;;3.30;99.90;;;;;;4120146;28;20435;-69
2021/01/10 02:45:31;;;;;;;15.32;9.07;;;3.20;99.90;;;;;;4118746;28;20097;-69
2021/01/10 02:47:32;;;;;;;16.48;9.60;;;3.20;99.90;;;;;;4125244;28;20492;-69
2021/01/10 02:49:33;;;;;;;14.23;9.10;;;3.20;99.90;;;;;;4126324;28;20035;-69
2021/01/10 02:51:34;;;;;;;14.65;9.65;;;3.20;99.90;;;;;;4120095;28;20039;-69
2021/01/10 02:53:35;;;;;;;15.18;9.07;;;3.20;99.90;;;;;;4121994;28;20038;-69
2021/01/10 02:55:36;;;;;;;15.77;8.65;;;3.20;99.90;;;;;;4125662;28;20034;-69
2021/01/10 02:57:38;;;;;;;17.08;9.23;;;3.20;99.90;;;;;;4110446;28;20407;-69
2021/01/10 02:59:41;;;;;;;14.02;9.18;;;3.10;99.90;;;;;;4121946;28;20202;-69
2021/01/10 03:01:45;;;;;;;14.77;9.25;;;3.20;99.90;;;;;;4108465;28;20043;-69
2021/01/10 03:03:46;;;;;;;18.15;9.73;;;3.10;99.90;;;;;;4125272;28;20031;-69
2021/01/10 03:05:48;;;;;;;15.27;8.55;;;3.10;99.90;;;;;;4122322;28;20043;-69
2021/01/10 03:07:49;;;;;;;14.30;8.63;;;3.10;99.90;;;;;;4096261;28;20041;-69
2021/01/10 03:09:50;;;;;;;15.07;9.13;;;3.10;99.90;;;;;;4117737;28;20538;-69
2021/01/10 03:11:54;;;;;;;15.80;9.10;;;3.00;99.90;;;;;;4123994;28;20161;-69
2021/01/10 03:13:55;;;;;;;18.52;9.85;;;3.00;99.90;;;;;;4110457;28;20030;-69
2021/01/10 03:15:56;;;;;;;18.45;9.57;;;2.90;99.90;;;;;;4126070;28;20085;-69
2021/01/10 03:18:04;;;;;;;15.73;9.27;;;2.90;99.90;;;;;;4123972;28;20034;-69
2021/01/10 03:20:11;;;;;;;17.10;9.88;;;2.90;99.90;;;;;;4126057;28;20030;-69
2021/01/10 03:22:13;;;;;;;15.88;9.55;;;2.90;99.90;;;;;;4119399;28;20069;-69
2021/01/10 03:24:14;;;;;;;14.73;9.13;;;2.80;99.90;;;;;;4126225;28;20023;-69
2021/01/10 03:26:15;;;;;;;17.05;9.60;;;2.90;99.90;;;;;;4122985;28;20067;-68
2021/01/10 03:28:15;;;;;;;16.50;10.15;;;2.90;99.90;;;;;;4123204;28;20794;-68
2021/01/10 03:30:18;;;;;;;17.17;9.23;;;2.90;99.90;;;;;;4116966;28;20019;-68
2021/01/10 03:32:19;;;;;;;13.50;8.80;;;2.80;99.90;;;;;;4130040;28;20538;-68
2021/01/10 03:34:20;;;;;;;15.70;9.18;;;2.80;99.90;;;;;;4119133;28;20166;-68
2021/01/10 03:36:21;;;;;;;20.55;9.63;;;2.80;99.90;;;;;;4128468;28;20559;-68
2021/01/10 03:38:21;;;;;;;16.48;10.27;;;2.80;99.90;;;;;;4128622;28;20119;-68
2021/01/10 03:40:22;;;;;;;17.65;9.52;;;2.80;99.90;;;;;;4128642;28;20047;-68
2021/01/10 03:42:22;;;;;;;17.15;9.43;;;2.80;99.90;;;;;;4128750;28;20459;-68
2021/01/10 03:44:24;;;;;;;17.95;9.95;;;2.80;99.90;;;;;;4115237;28;20062;-68
2021/01/10 03:46:25;;;;;;;16.70;9.27;;;2.70;99.90;;;;;;4129885;28;20050;-68
2021/01/10 03:48:26;;;;;;;14.07;8.52;;;2.70;99.90;;;;;;4129288;28;20453;-68
2021/01/10 03:50:26;;;;;;;14.15;8.95;;;2.70;99.90;;;;;;4130446;28;20030;-68
2021/01/10 03:52:27;;;;;;;15.70;9.38;;;2.70;99.90;;;;;;4123654;28;20082;-68
2021/01/10 03:54:27;;;;;;;16.83;9.13;;;2.70;99.90;;;;;;4117837;28;20058;-68
2021/01/10 03:56:28;;;;;;;16.83;9.15;;;2.70;99.90;;;;;;4127899;28;20472;-68
2021/01/10 03:58:29;;;;;;;14.80;9.15;;;2.70;99.90;;;;;;4128567;28;20069;-68
2021/01/10 04:00:32;;;;;;;14.23;8.02;;;2.70;99.90;;;;;;4127114;28;20049;-68
2021/01/10 04:02:32;;;;;;;16.42;9.00;;;2.70;99.90;;;;;;4115403;28;20427;-68
2021/01/10 04:04:33;;;;;;;16.63;9.70;;;2.70;99.90;;;;;;4127616;28;20498;-68
2021/01/10 04:06:34;;;;;;;14.00;8.63;;;2.70;99.90;;;;;;4126927;28;20038;-68
2021/01/10 04:08:34;;;;;;;15.88;9.80;;;2.70;99.90;;;;;;4128410;28;20425;-68
2021/01/10 04:10:35;;;;;;;15.95;9.10;;;2.70;99.90;;;;;;4126430;28;20038;-68
2021/01/10 04:12:35;;;;;;;16.00;8.77;;;2.70;99.90;;;;;;4126529;28;20386;-68
2021/01/10 04:14:36;;;;;;;18.48;9.70;;;2.70;99.90;;;;;;4122962;28;20062;-68
2021/01/10 04:16:36;;;;;;;12.75;8.38;;;2.70;99.90;;;;;;4126201;28;20042;-68
2021/01/10 04:18:37;;;;;;;17.23;8.57;;;2.70;99.90;;;;;;4120434;28;21683;-68
2021/01/10 04:20:37;;;;;;;14.00;8.18;;;2.70;99.90;;;;;;4133284;28;20054;-68
2021/01/10 04:22:38;;;;;;;16.70;9.05;;;2.60;99.90;;;;;;4122355;28;20120;-68
2021/01/10 04:24:39;;;;;;;16.08;8.90;;;2.60;99.90;;;;;;4115712;28;20475;-68
2021/01/10 04:26:46;;;;;;;15.27;8.35;;;2.60;99.90;;;;;;4125155;28;20026;-68
2021/01/10 04:28:46;;;;;;;16.88;8.98;;;2.60;99.90;;;;;;4122809;28;20049;-68
2021/01/10 04:30:47;;;;;;;15.50;9.10;;;2.60;99.90;;;;;;4099801;28;20054;-68
2021/01/10 04:32:47;;;;;;;17.27;9.00;;;2.60;99.90;;;;;;4128505;28;20034;-68
2021/01/10 04:34:48;;;;;;;12.88;8.27;;;2.60;99.90;;;;;;4126103;28;20037;-68
2021/01/10 04:36:49;;;;;;;16.58;8.88;;;2.60;99.90;;;;;;4127051;28;20049;-68
2021/01/10 04:38:49;;;;;;;16.00;9.23;;;2.50;99.90;;;;;;4128322;28;20034;-69
2021/01/10 04:40:50;;;;;;;18.25;10.00;;;2.50;99.90;;;;;;4126607;28;20038;-68
2021/01/10 04:42:52;;;;;;;14.57;8.40;;;2.50;99.90;;;;;;4127508;28;20438;-68
2021/01/10 04:44:53;;;;;;;17.60;9.57;;;2.50;99.90;;;;;;4110761;28;20050;-68
2021/01/10 04:46:54;;;;;;;17.58;9.80;;;2.50;99.90;;;;;;4123197;28;20039;-69
2021/01/10 04:48:56;;;;;;;18.75;10.68;;;2.40;99.90;;;;;;4126859;28;20027;-68
2021/01/10 04:50:58;;;;;;;14.95;9.48;;;2.40;99.90;;;;;;4125922;28;20046;-68
2021/01/10 04:53:02;;;;;;;16.15;9.32;;;2.40;99.90;;;;;;4124100;28;20105;-68
2021/01/10 04:55:04;;;;;;;17.00;9.35;;;2.40;99.90;;;;;;4113019;28;20125;-68
2021/01/10 04:57:10;;;;;;;19.52;9.90;;;2.40;99.90;;;;;;4121546;28;20122;-68
2021/01/10 04:59:10;;;;;;;17.45;9.40;;;2.40;99.90;;;;;;4116364;28;20038;-69
2021/01/10 05:01:17;;;;;;;19.40;10.35;;;2.40;99.90;;;;;;4118397;28;20060;-68
2021/01/10 05:03:19;;;;;;;18.85;9.23;;;2.40;99.90;;;;;;4137138;28;20035;-68
2021/01/10 05:05:20;;;;;;;17.17;9.55;;;2.30;99.90;;;;;;4128598;28;20043;-68
2021/01/10 05:07:21;;;;;;;17.33;9.80;;;2.30;99.90;;;;;;4117886;28;20061;-68
2021/01/10 05:09:23;;;;;;;16.08;10.25;;;2.30;99.90;;;;;;4127151;28;20043;-68
2021/01/10 05:11:24;;;;;;;16.38;9.85;;;2.30;99.90;;;;;;4129075;28;20057;-68
2021/01/10 05:13:24;;;;;;;17.95;10.13;;;2.30;99.90;;;;;;4128354;28;20049;-68
2021/01/10 05:15:25;;;;;;;17.30;9.63;;;2.30;99.90;;;;;;4125916;28;20034;-68
2021/01/10 05:17:25;;;;;;;17.40;9.55;;;2.30;99.90;;;;;;4137593;28;20045;-68
2021/01/10 05:19:29;;;;;;;16.98;9.40;;;2.20;99.90;;;;;;4132125;28;20045;-68
2021/01/10 05:21:30;;;;;;;18.02;9.93;;;2.20;99.90;;;;;;4120102;28;20050;-68
2021/01/10 05:23:31;;;;;;;21.67;11.55;;;2.20;99.90;;;;;;4126020;28;20070;-68
2021/01/10 05:25:32;;;;;;;21.02;10.55;;;2.20;99.90;;;;;;4126935;28;20038;-68
2021/01/10 05:27:37;;;;;;;21.27;10.52;;;2.20;99.90;;;;;;4127243;28;20034;-68
2021/01/10 05:29:37;;;;;;;21.05;11.18;;;2.20;99.90;;;;;;4120663;28;20078;-68
2021/01/10 05:31:45;;;;;;;18.65;10.32;;;2.10;99.90;;;;;;4123458;28;20049;-68
2021/01/10 05:33:50;;;;;;;20.83;10.73;;;2.10;99.90;;;;;;4127065;28;20049;-68
2021/01/10 05:35:53;;;;;;;19.65;10.82;;;2.10;99.90;;;;;;4116711;28;20046;-69
2021/01/10 05:37:56;;;;;;;19.67;11.13;;;2.10;99.90;;;;;;4123104;28;20049;-68
2021/01/10 05:39:56;;;;;;;20.75;11.18;;;2.10;99.90;;;;;;4126229;28;20026;-68
2021/01/10 05:42:02;;;;;;;22.88;12.20;;;2.10;99.90;;;;;;4117412;28;20162;-68
2021/01/10 05:44:04;;;;;;;21.80;11.82;;;2.10;99.90;;;;;;4122550;28;20068;-68
2021/01/10 05:46:18;;;;;;;20.98;11.48;;;2.00;99.90;;;;;;4109397;28;20115;-68
2021/01/10 05:48:20;;;;;;;23.08;12.43;;;2.00;99.90;;;;;;4142375;28;20089;-68
2021/01/10 05:50:23;;;;;;;22.30;12.07;;;2.00;99.90;;;;;;4135978;28;20046;-68
2021/01/10 05:52:25;;;;;;;24.08;12.50;;;2.00;99.90;;;;;;4139593;28;20049;-68
2021/01/10 05:54:43;;;;;;;21.10;12.13;;;2.00;99.90;;;;;;4136600;28;20451;-68
2021/01/10 05:56:43;;;;;;;23.73;12.18;;;2.00;99.90;;;;;;4142505;28;20803;-68
2021/01/10 05:58:52;;;;;;;23.52;12.30;;;2.00;99.90;;;;;;4139147;28;20034;-68
2021/01/10 06:00:53;;;;;;;21.65;12.15;;;2.00;99.90;;;;;;4154646;28;20655;-68
2021/01/10 06:03:00;;;;;;;24.40;12.68;;;2.00;99.90;;;;;;4146160;28;20033;-68
2021/01/10 06:05:27;;;;;;;24.65;11.93;;;2.00;99.90;;;;;;4140939;28;20089;-68
2021/01/10 06:07:30;;;;;;;23.15;12.75;;;1.90;99.90;;;;;;4139583;28;20080;-68
2021/01/10 06:09:47;;;;;;;25.08;12.10;;;1.90;99.90;;;;;;4142175;28;20506;-68
2021/01/10 06:11:48;;;;;;;23.50;12.02;;;1.90;99.90;;;;;;4126863;28;20038;-68
2021/01/10 06:13:59;;;;;;;20.67;10.93;;;1.90;99.90;;;;;;4141550;28;20122;-68
2021/01/10 06:16:05;;;;;;;21.23;11.32;;;1.90;99.90;;;;;;4135643;28;20116;-68
2021/01/10 06:18:06;;;;;;;21.13;11.73;;;1.90;99.90;;;;;;4135035;28;20053;-68
2021/01/10 06:20:30;;;;;;;21.83;11.27;;;1.90;99.90;;;;;;4141363;28;20026;-68
2021/01/10 06:22:37;;;;;;;23.25;11.23;;;1.90;99.90;;;;;;4124765;28;20038;-68
2021/01/10 06:24:44;;;;;;;27.40;13.52;;;1.90;99.90;;;;;;4144062;28;20480;-68
2021/01/10 06:26:48;;;;;;;23.55;11.73;;;1.90;99.90;;;;;;4142481;28;20038;-71
2021/01/10 06:28:52;;;;;;;20.05;11.15;;;1.90;99.90;;;;;;4143621;28;20050;-71
2021/01/10 06:30:58;;;;;;;21.95;11.25;;;1.90;99.90;;;;;;4144173;28;20030;-70
2021/01/10 06:33:16;;;;;;;20.17;11.07;;;1.90;99.90;;;;;;4141789;28;20140;-71
2021/01/10 06:35:18;;;;;;;24.73;10.70;;;1.90;99.90;;;;;;4141515;28;20038;-71
2021/01/10 06:37:19;;;;;;;22.08;11.68;;;1.90;99.90;;;;;;4136574;28;20050;-71
2021/01/10 06:39:28;;;;;;;22.67;11.45;;;1.80;99.90;;;;;;4117884;28;20635;-71
2021/01/10 06:42:04;;;;;;;24.75;11.98;;;1.90;99.90;;;;;;4141672;28;20057;-71
2021/01/10 06:44:08;;;;;;;22.92;11.85;;;1.90;99.90;;;;;;4129971;28;20514;-71
2021/01/10 06:46:10;;;;;;;20.73;11.05;;;1.90;99.90;;;;;;4148922;28;20041;-70
2021/01/10 06:48:11;;;;;;;22.23;11.90;;;1.80;99.90;;;;;;4137856;28;20042;-71
2021/01/10 06:50:12;;;;;;;21.67;11.93;;;1.80;99.90;;;;;;4149974;28;20080;-71
2021/01/10 06:52:13;;;;;;;22.02;11.80;;;1.80;99.90;;;;;;4140972;28;20050;-71
2021/01/10 06:54:15;;;;;;;20.10;10.85;;;1.80;99.90;;;;;;4142451;28;20052;-71
2021/01/10 06:56:16;;;;;;;22.45;12.25;;;1.80;99.90;;;;;;4141187;28;20046;-71
2021/01/10 06:58:17;;;;;;;20.88;12.02;;;1.80;99.90;;;;;;4143382;28;20113;-71
2021/01/10 07:00:18;;;;;;;22.45;12.90;;;1.90;99.90;;;;;;4140767;28;20498;-71
2021/01/10 07:02:19;;;;;;;25.17;14.10;;;1.90;99.90;;;;;;4141744;28;20045;-71
2021/01/10 07:04:25;;;;;;;28.65;14.50;;;1.90;99.90;;;;;;4143079;28;20049;-71
2021/01/10 07:06:25;;;;;;;32.47;14.43;;;1.90;99.90;;;;;;4146454;28;20036;-71
2021/01/10 07:08:32;;;;;;;37.50;14.55;;;1.90;99.90;;;;;;4130212;28;20049;-71
2021/01/10 07:10:33;;;;;;;29.60;14.13;;;1.90;99.90;;;;;;4145468;28;20125;-71
2021/01/10 07:12:34;;;;;;;32.60;14.82;;;2.00;99.90;;;;;;4138316;28;20050;-71
2021/01/10 07:14:34;;;;;;;31.80;14.98;;;2.00;99.90;;;;;;4145070;28;20045;-71
2021/01/10 07:16:36;;;;;;;28.85;14.88;;;2.00;99.90;;;;;;4146196;28;20065;-71
2021/01/10 07:18:53;;;;;;;27.30;14.30;;;2.00;99.90;;;;;;4153972;28;20044;-71
2021/01/10 07:20:54;;;;;;;28.35;14.68;;;2.00;99.90;;;;;;4137886;28;20044;-71
2021/01/10 07:23:28;;;;;;;26.30;13.55;;;2.00;99.90;;;;;;4149928;28;20033;-71
2021/01/10 07:25:34;;;;;;;24.23;12.45;;;2.00;99.90;;;;;;4144791;28;20498;-70
2021/01/10 07:27:35;;;;;;;20.75;11.63;;;2.00;99.90;;;;;;4148872;28;20037;-71
2021/01/10 07:29:38;;;;;;;23.00;12.30;;;2.00;99.90;;;;;;4139273;28;20049;-71
2021/01/10 07:31:56;;;;;;;27.30;14.35;;;2.00;99.90;;;;;;4146177;28;20034;-71
2021/01/10 07:34:11;;;;;;;26.75;13.45;;;2.00;99.90;;;;;;4139800;28;20124;-71
2021/01/10 07:36:13;;;;;;;21.02;11.70;;;2.00;99.90;;;;;;4152372;28;20038;-71
2021/01/10 07:38:16;;;;;;;21.90;11.93;;;2.00;99.90;;;;;;4147566;28;20052;-71
2021/01/10 07:40:23;;;;;;;;;;;2.00;99.90;;;;;;4152802;28;20433;-70
2021/01/10 07:42:26;;;;;;;22.52;12.10;;;2.00;99.90;;;;;;4146628;28;19960;-71
2021/01/10 07:44:47;;;;;;;23.95;13.35;;;2.10;99.90;;;;;;4150932;28;20517;-71
2021/01/10 07:46:52;;;;;;;21.35;12.57;;;2.00;99.90;;;;;;4148027;28;20038;-71
2021/01/10 07:48:53;;;;;;;27.70;13.93;;;2.00;99.90;;;;;;4136217;28;20026;-70
2021/01/10 07:51:23;;;;;;;27.48;14.82;;;2.00;99.90;;;;;;4146864;28;20029;-71
2021/01/10 07:53:47;;;;;;;24.42;13.02;;;2.00;99.90;;;;;;4151172;28;20084;-70
2021/01/10 07:55:48;;;;;;;24.65;12.82;;;1.90;99.90;;;;;;4144905;28;20076;-71
2021/01/10 07:58:03;;;;;;;23.73;12.95;;;1.90;99.90;;;;;;4150867;28;20049;-71
2021/01/10 08:00:22;;;;;;;;;;;1.90;99.90;;;;;;4132772;28;20041;-71
2021/01/10 08:02:43;;;;;;;28.25;14.63;;;2.00;99.90;;;;;;4144149;28;19936;-71
2021/01/10 08:04:46;;;;;;;24.98;14.07;;;1.90;99.90;;;;;;4143344;28;20027;-71
2021/01/10 08:06:57;;;;;;;27.15;14.27;;;2.00;99.90;;;;;;4144177;28;20475;-71
2021/01/10 08:09:01;;;;;;;30.40;14.88;;;1.90;99.90;;;;;;4149271;28;20041;-71
2021/01/10 08:11:02;;;;;;;28.65;15.90;;;1.90;99.90;;;;;;4149978;28;20105;-71
2021/01/10 08:13:03;;;;;;;30.80;14.90;;;1.90;99.90;;;;;;4142931;28;20038;-71
2021/01/10 08:15:05;;;;;;;26.00;14.27;;;1.80;99.90;;;;;;4146572;28;20120;-71
2021/01/10 08:17:17;;;;;;;28.70;14.45;;;1.80;99.90;;;;;;4143853;28;20108;-71
2021/01/10 08:19:18;;;;;;;24.25;13.73;;;1.80;99.90;;;;;;4142459;28;20034;-71
2021/01/10 08:21:18;;;;;;;25.60;14.05;;;1.80;99.90;;;;;;4139447;28;20518;-71
2021/01/10 08:23:21;;;;;;;25.65;13.60;;;1.90;99.90;;;;;;4145440;28;20541;-70
2021/01/10 08:25:22;;;;;;;26.92;14.02;;;1.90;99.90;;;;;;4149577;28;20046;-71
2021/01/10 08:27:24;;;;;;;28.95;15.00;;;2.00;99.90;;;;;;4135818;28;20049;-71
2021/01/10 08:29:25;;;;;;;32.80;16.77;;;2.00;99.90;;;;;;4144883;28;20045;-71
2021/01/10 08:31:26;;;;;;;24.60;13.95;;;2.00;99.90;;;;;;4139806;28;20065;-69
2021/01/10 08:33:27;;;;;;;27.45;13.48;;;2.00;99.90;;;;;;4148187;28;20486;-70
2021/01/10 08:35:28;;;;;;;24.77;13.07;;;2.10;99.90;;;;;;4149092;28;20045;-70
2021/01/10 08:37:28;;;;;;;25.13;14.18;;;2.00;99.90;;;;;;4146423;28;20084;-70
2021/01/10 08:39:31;;;;;;;27.85;14.27;;;2.10;99.90;;;;;;4147779;28;20121;-70
2021/01/10 08:41:34;;;;;;;26.23;13.73;;;2.20;99.90;;;;;;4131241;28;20073;-70
2021/01/10 08:43:47;;;;;;;28.00;14.65;;;2.10;99.90;;;;;;4146587;28;20068;-70
2021/01/10 08:45:48;;;;;;;28.13;14.55;;;2.10;99.90;;;;;;4150296;28;20153;-70
2021/01/10 08:47:49;;;;;;;27.10;15.35;;;2.20;99.90;;;;;;4148739;28;20060;-70
2021/01/10 08:49:59;;;;;;;28.45;15.23;;;2.10;99.90;;;;;;4151093;28;20555;-70
2021/01/10 08:52:04;;;;;;;29.30;15.02;;;2.20;99.90;;;;;;4145247;28;20033;-70
2021/01/10 08:54:14;;;;;;;29.42;15.73;;;2.10;99.90;;;;;;4147779;28;20041;-70
2021/01/10 08:56:15;;;;;;;27.77;15.20;;;2.10;99.90;;;;;;4151509;28;20049;-70
2021/01/10 08:58:17;;;;;;;27.73;15.20;;;2.10;99.90;;;;;;4147981;28;20398;-70
2021/01/10 09:00:18;;;;;;;27.77;14.85;;;2.10;99.90;;;;;;4144178;28;20030;-70
2021/01/10 09:02:18;;;;;;;27.75;15.02;;;2.10;99.90;;;;;;4150023;28;20065;-70
2021/01/10 09:04:19;;;;;;;28.77;14.70;;;2.10;99.90;;;;;;4146698;28;20041;-70
2021/01/10 09:06:23;;;;;;;30.90;16.27;;;2.10;99.90;;;;;;4151294;28;20033;-71
2021/01/10 09:08:38;;;;;;;30.42;15.68;;;2.20;99.90;;;;;;4149807;28;20078;-70
2021/01/10 09:10:48;;;;;;;35.42;16.73;;;2.10;99.90;;;;;;4150854;28;20030;-70
2021/01/10 09:12:57;;;;;;;29.05;14.50;;;2.10;99.90;;;;;;4147243;28;20393;-70
2021/01/10 09:15:32;;;;;;;27.10;14.73;;;2.10;99.90;;;;;;4150751;28;20339;-70
2021/01/10 09:17:36;;;;;;;27.65;14.73;;;2.10;99.90;;;;;;4144503;28;20045;-70
2021/01/10 09:19:38;;;;;;;32.60;16.38;;;2.20;99.90;;;;;;4150767;28;20045;-70
2021/01/10 09:21:45;;;;;;;36.00;14.73;;;2.20;99.90;;;;;;4148705;28;20111;-70
2021/01/10 09:23:55;;;;;;;29.65;16.25;;;2.20;99.90;;;;;;4145195;28;20092;-70
2021/01/10 09:25:55;;;;;;;34.63;17.38;;;2.20;99.90;;;;;;4148433;28;20049;-70
2021/01/10 09:28:06;;;;;;;31.05;16.40;;;2.30;99.90;;;;;;4147724;28;20045;-70
2021/01/10 09:30:07;;;;;;;29.80;16.48;;;2.30;99.90;;;;;;4146052;28;20044;-70
2021/01/10 09:32:20;;;;;;;37.17;18.67;;;2.30;99.90;;;;;;4145305;28;20030;-70
2021/01/10 09:34:25;;;;;;;30.80;17.27;;;2.30;99.90;;;;;;4149901;28;20037;-70
2021/01/10 09:36:26;;;;;;;34.35;18.30;;;2.30;99.90;;;;;;4146084;28;20068;-70
2021/01/10 09:38:29;;;;;;;29.65;15.05;;;2.30;99.90;;;;;;4146943;28;20037;-70
2021/01/10 09:40:30;;;;;;;29.10;15.55;;;2.40;99.90;;;;;;4151228;28;20037;-70
2021/01/10 09:42:40;;;;;;;31.75;16.67;;;2.40;99.90;;;;;;4145331;28;20057;-70
2021/01/10 09:44:51;;;;;;;32.58;16.08;;;2.40;99.90;;;;;;4144343;28;20793;-70
2021/01/10 09:46:53;;;;;;;27.52;15.50;;;2.40;99.90;;;;;;4153457;28;20045;-70
2021/01/10 09:48:59;;;;;;;29.48;15.63;;;2.50;99.90;;;;;;4144678;28;20022;-70
2021/01/10 09:51:10;;;;;;;32.55;16.90;;;2.50;99.90;;;;;;4143952;28;20118;-70
2021/01/10 09:53:24;;;;;;;32.45;16.73;;;2.50;99.90;;;;;;4150896;28;20570;-70
2021/01/10 09:55:25;;;;;;;38.60;18.02;;;2.60;99.90;;;;;;4145330;28;20080;-70
2021/01/10 09:57:26;;;;;;;35.13;18.52;;;2.60;99.90;;;;;;4143101;28;20060;-70
2021/01/10 09:59:39;;;;;;;33.08;17.83;;;2.50;99.90;;;;;;4147419;28;20041;-70
2021/01/10 10:01:40;;;;;;;32.55;17.20;;;2.50;99.90;;;;;;4142900;28;20049;-70
2021/01/10 10:03:49;;;;;;;32.72;18.67;;;2.50;99.90;;;;;;4150700;28;20026;-70
2021/01/10 10:05:59;;;;;;;35.88;17.05;;;2.60;99.90;;;;;;4145971;28;20091;-70
2021/01/10 10:08:01;;;;;;;33.70;18.92;;;2.60;99.90;;;;;;4150247;28;20041;-70
2021/01/10 10:10:05;;;;;;;32.33;17.92;;;2.60;99.90;;;;;;4127443;28;20038;-70
2021/01/10 10:12:06;;;;;;;39.17;19.58;;;2.50;99.90;;;;;;4147349;28;20022;-70
2021/01/10 10:14:10;;;;;;;35.80;19.25;;;2.50;99.90;;;;;;4143692;28;20095;-70
2021/01/10 10:16:17;;;;;;;41.63;21.00;;;2.50;99.90;;;;;;4141752;28;20061;-70
2021/01/10 10:18:20;;;;;;;34.97;18.48;;;2.50;99.90;;;;;;4146586;28;20110;-70
2021/01/10 10:20:20;;;;;;;30.45;15.98;;;2.60;99.90;;;;;;4149865;28;20026;-70
2021/01/10 10:22:22;;;;;;;35.53;18.20;;;2.60;99.90;;;;;;4151659;28;20037;-70
2021/01/10 10:24:23;;;;;;;33.28;17.73;;;2.60;99.90;;;;;;4140906;28;20038;-70
2021/01/10 10:26:24;;;;;;;34.60;18.13;;;2.60;99.90;;;;;;4149037;28;20030;-70
2021/01/10 10:28:24;;;;;;;35.92;18.17;;;2.60;99.90;;;;;;4148058;28;20034;-70
2021/01/10 10:30:26;;;;;;;36.85;18.35;;;2.60;99.90;;;;;;4147781;28;20475;-70
2021/01/10 10:32:27;;;;;;;36.10;18.55;;;2.60;99.90;;;;;;4145730;28;20057;-70
2021/01/10 10:34:30;;;;;;;30.23;17.83;;;2.70;99.90;;;;;;4138718;28;20444;-70
2021/01/10 10:36:30;;;;;;;39.92;20.48;;;2.70;99.90;;;;;;4132337;28;20030;-70
2021/01/10 10:38:31;;;;;;;40.83;19.38;;;2.60;99.90;;;;;;4148362;28;20084;-70
2021/01/10 10:40:32;;;;;;;37.92;19.08;;;2.60;99.90;;;;;;4149019;28;20121;-70